createdAt,value
2022-09-17T00:03:01.139Z,12.30
2022-09-17T00:08:29.703Z,12.30
2022-09-17T00:11:10.208Z,12.20
2022-09-17T00:14:13.595Z,12.20
2022-09-17T00:17:12.896Z,12.20
2022-09-17T00:26:01.636Z,12.20
2022-09-17T00:28:35.080Z,12.20
2022-09-17T00:31:30.245Z,12.10
2022-09-17T00:34:05.171Z,12.10
2022-09-17T00:37:13.871Z,12.10
2022-09-17T00:39:55.227Z,12.10
2022-09-17T00:42:29.556Z,12.00
2022-09-17T00:45:06.563Z,12.00
2022-09-17T00:47:52.007Z,12.00
2022-09-17T00:50:31.766Z,11.90
2022-09-17T00:53:26.014Z,12.00
2022-09-17T00:56:01.405Z,11.90
2022-09-17T00:58:44.373Z,11.90
2022-09-17T01:01:27.411Z,11.90
2022-09-17T01:04:03.306Z,11.90
2022-09-17T01:07:05.356Z,11.90
2022-09-17T01:10:05.601Z,11.90
2022-09-17T01:12:59.908Z,11.80
2022-09-17T01:16:17.029Z,11.80
2022-09-17T01:19:38.983Z,11.80
2022-09-17T01:22:02.624Z,11.70
2022-09-17T01:24:59.096Z,11.70
2022-09-17T01:27:55.147Z,11.70
2022-09-17T01:30:59.412Z,11.70
2022-09-17T01:33:50.174Z,11.60
2022-09-17T01:36:24.999Z,11.60
2022-09-17T01:39:03.627Z,11.60
2022-09-17T01:42:10.214Z,11.50
2022-09-17T01:48:01.041Z,11.50
2022-09-17T01:50:44.437Z,11.40
2022-09-17T01:53:28.504Z,11.40
2022-09-17T01:56:11.912Z,11.30
2022-09-17T01:58:56.594Z,11.30
2022-09-17T02:01:34.881Z,11.30
2022-09-17T02:04:15.844Z,11.30
2022-09-17T02:06:52.330Z,11.20
2022-09-17T02:09:22.645Z,11.20
2022-09-17T02:11:59.155Z,11.20
2022-09-17T02:14:29.341Z,11.10
2022-09-17T02:18:04.064Z,11.10
2022-09-17T02:21:00.229Z,11.10
2022-09-17T02:26:19.026Z,11.00
2022-09-17T02:28:52.727Z,11.00
2022-09-17T02:31:19.975Z,11.00
2022-09-17T02:33:54.172Z,11.00
2022-09-17T02:36:23.447Z,11.00
2022-09-17T02:38:58.204Z,10.90
2022-09-17T02:41:27.568Z,10.90
2022-09-17T02:44:25.333Z,10.90
2022-09-17T02:47:11.951Z,10.90
2022-09-17T02:49:59.847Z,10.90
2022-09-17T02:52:41.823Z,10.80
2022-09-17T02:55:25.130Z,10.80
2022-09-17T02:58:12.776Z,10.70
2022-09-17T03:00:40.100Z,10.80
2022-09-17T03:03:11.837Z,10.70
2022-09-17T03:05:38.945Z,10.70
2022-09-17T03:08:08.341Z,10.70
2022-09-17T03:10:35.459Z,10.70
2022-09-17T03:13:02.586Z,10.60
2022-09-17T03:15:33.794Z,10.60
2022-09-17T03:18:00.744Z,10.60
2022-09-17T03:20:27.808Z,10.60
2022-09-17T03:22:54.933Z,10.60
2022-09-17T03:25:21.917Z,10.60
2022-09-17T03:27:52.685Z,10.50
2022-09-17T03:30:20.227Z,10.50
2022-09-17T03:32:47.393Z,10.50
2022-09-17T03:35:14.407Z,10.50
2022-09-17T03:37:41.371Z,10.50
2022-09-17T03:40:17.662Z,10.40
2022-09-17T03:42:44.932Z,10.50
2022-09-17T03:45:14.819Z,10.40
2022-09-17T03:47:41.975Z,10.40
2022-09-17T03:50:18.299Z,10.40
2022-09-17T03:52:48.117Z,10.40
2022-09-17T03:55:22.685Z,10.30
2022-09-17T03:57:51.756Z,10.30
2022-09-17T04:00:25.454Z,10.30
2022-09-17T04:02:53.659Z,10.30
2022-09-17T04:08:22.937Z,10.30
2022-09-17T04:10:59.086Z,10.30
2022-09-17T04:13:48.016Z,10.20
2022-09-17T04:16:55.977Z,10.20
2022-09-17T04:22:30.613Z,10.20
2022-09-17T04:25:04.028Z,10.20
2022-09-17T04:27:45.285Z,10.10
2022-09-17T04:30:23.025Z,10.10
2022-09-17T04:32:53.129Z,10.10
2022-09-17T04:35:20.198Z,10.10
2022-09-17T04:38:02.049Z,10.00
2022-09-17T04:40:30.046Z,10.00
2022-09-17T04:43:10.522Z,10.00
2022-09-17T04:45:37.933Z,10.00
2022-09-17T04:48:12.434Z,10.00
2022-09-17T04:50:47.165Z,9.90
2022-09-17T04:53:23.437Z,9.90
2022-09-17T04:55:56.112Z,9.90
2022-09-17T04:58:37.599Z,9.90
2022-09-17T05:01:07.317Z,9.90
2022-09-17T05:03:38.996Z,9.90
2022-09-17T05:06:09.912Z,9.80
2022-09-17T05:08:49.470Z,9.80
2022-09-17T05:11:34.109Z,9.80
2022-09-17T05:14:01.363Z,9.70
2022-09-17T05:16:51.235Z,9.70
2022-09-17T05:19:31.198Z,9.70
2022-09-17T05:22:05.415Z,9.60
2022-09-17T05:24:48.737Z,9.60
2022-09-17T05:27:15.978Z,9.60
2022-09-17T05:29:53.216Z,9.60
2022-09-17T05:32:27.790Z,9.60
2022-09-17T05:34:57.937Z,9.60
2022-09-17T05:37:40.834Z,9.60
2022-09-17T05:40:11.340Z,9.50
2022-09-17T05:42:41.283Z,9.50
2022-09-17T05:45:09.338Z,9.50
2022-09-17T05:47:44.675Z,9.50
2022-09-17T05:50:23.582Z,9.50
2022-09-17T05:52:51.286Z,9.50
2022-09-17T05:55:34.097Z,9.50
2022-09-17T05:58:12.824Z,9.50
2022-09-17T06:00:58.196Z,9.50
2022-09-17T06:03:43.221Z,9.50
2022-09-17T06:06:39.825Z,9.50
2022-09-17T06:09:18.209Z,9.50
2022-09-17T06:11:52.932Z,9.50
2022-09-17T06:14:24.923Z,9.50
2022-09-17T06:17:04.095Z,9.50
2022-09-17T06:19:45.213Z,9.50
2022-09-17T06:22:12.592Z,9.50
2022-09-17T06:24:42.848Z,9.50
2022-09-17T06:27:14.958Z,9.50
2022-09-17T06:29:42.223Z,9.50
2022-09-17T06:32:13.328Z,9.60
2022-09-17T06:34:40.544Z,9.60
2022-09-17T06:37:10.718Z,9.60
2022-09-17T06:39:46.047Z,9.60
2022-09-17T06:42:22.283Z,9.60
2022-09-17T06:44:49.266Z,9.60
2022-09-17T06:47:26.454Z,9.70
2022-09-17T06:49:55.446Z,9.70
2022-09-17T06:52:24.157Z,9.70
2022-09-17T06:54:52.027Z,9.80
2022-09-17T06:57:32.180Z,9.80
2022-09-17T07:00:05.128Z,9.80
2022-09-17T07:02:34.440Z,9.90
2022-09-17T07:05:07.582Z,9.90
2022-09-17T07:07:38.280Z,10.00
2022-09-17T07:10:11.422Z,10.00
2022-09-17T07:12:44.449Z,10.10
2022-09-17T07:15:16.054Z,10.10
2022-09-17T07:17:46.529Z,10.20
2022-09-17T07:20:13.665Z,10.30
2022-09-17T07:22:40.750Z,10.30
2022-09-17T07:25:08.108Z,10.50
2022-09-17T07:27:35.109Z,10.60
2022-09-17T07:30:02.156Z,10.70
2022-09-17T07:32:32.176Z,10.80
2022-09-17T07:34:59.138Z,10.90
2022-09-17T07:37:26.209Z,11.00
2022-09-17T07:39:53.192Z,11.10
2022-09-17T07:42:20.174Z,11.20
2022-09-17T07:44:47.116Z,11.40
2022-09-17T07:47:14.183Z,11.40
2022-09-17T07:49:41.131Z,11.50
2022-09-17T07:52:08.246Z,11.60
2022-09-17T07:54:36.933Z,11.70
2022-09-17T07:57:04.494Z,11.80
2022-09-17T07:59:31.452Z,11.90
2022-09-17T08:01:58.416Z,12.00
2022-09-17T08:04:25.528Z,12.10
2022-09-17T08:06:52.537Z,12.20
2022-09-17T08:09:19.486Z,12.30
2022-09-17T08:12:01.628Z,12.40
2022-09-17T08:14:31.795Z,12.50
2022-09-17T08:16:58.920Z,12.60
2022-09-17T08:19:25.942Z,12.70
2022-09-17T08:21:52.989Z,12.70
2022-09-17T08:24:19.934Z,12.80
2022-09-17T08:26:46.942Z,12.90
2022-09-17T08:29:14.125Z,13.00
2022-09-17T08:31:41.258Z,13.10
2022-09-17T08:34:09.712Z,13.20
2022-09-17T08:36:37.017Z,13.20
2022-09-17T08:39:04.469Z,13.30
2022-09-17T08:41:42.433Z,13.40
2022-09-17T08:44:18.590Z,13.40
2022-09-17T08:47:25.514Z,13.50
2022-09-17T08:49:56.730Z,13.60
2022-09-17T08:52:24.123Z,13.70
2022-09-17T08:55:24.510Z,13.70
2022-09-17T08:58:28.712Z,13.80
2022-09-17T09:01:11.658Z,14.00
2022-09-17T09:03:41.853Z,14.10
2022-09-17T09:06:11.023Z,14.10
2022-09-17T09:09:04.328Z,14.20
2022-09-17T09:11:31.555Z,14.20
2022-09-17T09:14:07.477Z,14.20
2022-09-17T09:16:34.926Z,14.30
2022-09-17T09:19:23.895Z,14.40
2022-09-17T09:22:07.516Z,14.40
2022-09-17T09:25:04.581Z,14.50
2022-09-17T09:27:44.480Z,14.60
2022-09-17T09:30:12.199Z,14.50
2022-09-17T09:32:54.120Z,14.60
2022-09-17T09:35:22.808Z,14.60
2022-09-17T09:38:13.050Z,14.70
2022-09-17T09:41:01.736Z,14.70
2022-09-17T09:44:05.596Z,14.80
2022-09-17T09:46:50.901Z,14.80
2022-09-17T09:49:42.321Z,14.90
2022-09-17T09:52:41.043Z,14.90
2022-09-17T09:55:26.682Z,15.00
2022-09-17T09:57:59.366Z,15.10
2022-09-17T10:00:37.669Z,15.10
2022-09-17T10:03:18.379Z,15.10
2022-09-17T10:05:58.875Z,15.10
2022-09-17T10:08:26.303Z,15.10
2022-09-17T10:11:06.842Z,15.10
2022-09-17T10:13:36.201Z,15.20
2022-09-17T10:16:24.618Z,15.20
2022-09-17T10:19:15.709Z,15.20
2022-09-17T10:21:45.451Z,15.30
2022-09-17T10:24:41.772Z,15.30
2022-09-17T10:27:16.824Z,15.30
2022-09-17T10:33:22.761Z,15.40
2022-09-17T10:36:27.855Z,15.40
2022-09-17T10:46:31.445Z,15.50
2022-09-17T10:49:17.289Z,15.60
2022-09-17T10:51:44.853Z,15.60
2022-09-17T10:54:45.251Z,15.60
2022-09-17T10:57:24.650Z,15.70
2022-09-17T11:00:26.731Z,15.70
2022-09-17T11:03:23.083Z,15.70
2022-09-17T11:06:19.686Z,15.70
2022-09-17T11:09:04.972Z,15.70
2022-09-17T11:11:55.735Z,15.70
2022-09-17T11:15:00.639Z,15.70
2022-09-17T11:17:33.480Z,15.80
2022-09-17T11:20:18.043Z,15.80
2022-09-17T11:23:28.812Z,15.90
2022-09-17T11:26:01.023Z,15.90
2022-09-17T11:28:59.013Z,15.90
2022-09-17T11:31:53.004Z,16.00
2022-09-17T11:34:35.922Z,16.00
2022-09-17T11:37:23.180Z,16.10
2022-09-17T11:40:33.467Z,16.20
2022-09-17T11:43:35.701Z,16.20
2022-09-17T11:47:09.794Z,16.30
2022-09-17T11:50:33.546Z,16.30
2022-09-17T12:19:08.605Z,16.40
2022-09-17T12:23:51.447Z,16.40
2022-09-17T12:26:09.584Z,16.40
2022-09-17T12:36:35.857Z,16.40
2022-09-17T12:41:13.703Z,16.50
2022-09-17T12:49:35.251Z,16.50
2022-09-17T12:52:48.478Z,16.50
2022-09-17T12:55:40.396Z,16.60
2022-09-17T12:58:35.440Z,16.60
2022-09-17T13:01:38.423Z,16.60
2022-09-17T13:04:38.146Z,16.60
2022-09-17T13:11:27.690Z,16.70
2022-09-17T13:14:42.817Z,16.70
2022-09-17T13:21:31.344Z,16.70
2022-09-17T13:24:23.179Z,16.80
2022-09-17T13:26:56.482Z,16.80
2022-09-17T13:29:53.346Z,16.80
2022-09-17T13:32:41.775Z,16.90
2022-09-17T13:35:51.792Z,16.90
2022-09-17T13:38:23.065Z,16.90
2022-09-17T13:41:21.648Z,17.00
2022-09-17T13:43:50.472Z,17.00
2022-09-17T13:46:59.080Z,17.10
2022-09-17T13:49:26.029Z,17.20
2022-09-17T13:51:53.283Z,17.20
2022-09-17T13:54:21.290Z,17.20
2022-09-17T13:57:02.993Z,17.20
2022-09-17T13:59:30.405Z,17.30
2022-09-17T14:06:33.610Z,17.30
2022-09-17T14:09:00.796Z,17.30
2022-09-17T14:11:54.241Z,17.30
2022-09-17T14:18:39.859Z,17.40
2022-09-17T14:24:40.007Z,17.40
2022-09-17T14:28:11.382Z,17.40
2022-09-17T14:30:38.358Z,17.40
2022-09-17T14:33:09.415Z,17.40
2022-09-17T14:36:15.786Z,17.40
2022-09-17T14:42:35.570Z,17.40
2022-09-17T14:45:19.236Z,17.40
2022-09-17T14:47:49.566Z,17.40
2022-09-17T14:53:16.827Z,17.40
2022-09-17T14:55:45.949Z,17.40
2022-09-17T14:58:32.057Z,17.40
2022-09-17T15:02:06.587Z,17.30
2022-09-17T15:04:39.507Z,17.30
2022-09-17T15:07:10.005Z,17.30
2022-09-17T15:09:46.015Z,17.30
2022-09-17T15:12:14.688Z,17.30
2022-09-17T15:14:44.020Z,17.30
2022-09-17T15:17:19.501Z,17.30
2022-09-17T15:19:52.238Z,17.30
2022-09-17T15:22:25.621Z,17.30
2022-09-17T15:25:29.110Z,17.30
2022-09-17T15:31:33.560Z,17.30
2022-09-17T15:34:07.606Z,17.30
2022-09-17T15:36:50.657Z,17.30
2022-09-17T15:39:45.124Z,17.30
2022-09-17T15:42:23.929Z,17.30
2022-09-17T15:44:58.717Z,17.30
2022-09-17T15:47:57.226Z,17.30
2022-09-17T15:51:01.046Z,17.30
2022-09-17T15:53:35.438Z,17.30
2022-09-17T15:56:17.954Z,17.30
2022-09-17T15:58:45.003Z,17.30
2022-09-17T16:01:18.103Z,17.30
2022-09-17T16:04:20.393Z,17.30
2022-09-17T16:07:20.893Z,17.30
2022-09-17T16:10:05.609Z,17.20
2022-09-17T16:14:07.594Z,17.20
2022-09-17T16:15:39.993Z,17.20
2022-09-17T16:18:10.586Z,17.20
2022-09-17T16:20:37.682Z,17.20
2022-09-17T16:23:13.417Z,17.20
2022-09-17T16:25:43.393Z,17.10
2022-09-17T16:28:15.125Z,17.10
2022-09-17T16:31:04.170Z,17.10
2022-09-17T16:33:38.752Z,17.10
2022-09-17T16:36:08.966Z,17.10
2022-09-17T16:38:38.765Z,17.00
2022-09-17T16:41:10.987Z,17.00
2022-09-17T16:43:41.158Z,17.00
2022-09-17T16:46:10.782Z,17.00
2022-09-17T16:48:42.381Z,17.00
2022-09-17T16:51:22.350Z,16.90
2022-09-17T16:53:53.290Z,16.90
2022-09-17T16:56:20.668Z,16.90
2022-09-17T16:58:48.008Z,16.90
2022-09-17T17:01:28.791Z,16.80
2022-09-17T17:03:59.711Z,16.80
2022-09-17T17:06:29.741Z,16.80
2022-09-17T17:09:01.247Z,16.80
2022-09-17T17:11:31.252Z,16.70
2022-09-17T17:14:05.719Z,16.70
2022-09-17T17:16:32.881Z,16.70
2022-09-17T17:19:06.066Z,16.60
2022-09-17T17:21:33.500Z,16.60
2022-09-17T17:24:10.517Z,16.60
2022-09-17T17:26:46.035Z,16.50
2022-09-17T17:29:23.688Z,16.50
2022-09-17T17:31:55.620Z,16.50
2022-09-17T17:34:31.415Z,16.40
2022-09-17T17:39:47.514Z,16.40
2022-09-17T17:42:23.904Z,16.30
2022-09-17T17:44:55.928Z,16.30
2022-09-17T17:47:26.657Z,16.20
2022-09-17T17:50:06.026Z,16.20
2022-09-17T17:52:37.193Z,16.20
2022-09-17T17:55:10.205Z,16.20
2022-09-17T17:57:45.227Z,16.10
2022-09-17T18:00:13.389Z,16.00
2022-09-17T18:02:43.562Z,16.00
2022-09-17T18:05:20.315Z,15.90
2022-09-17T18:07:49.876Z,15.90
2022-09-17T18:10:19.290Z,15.90
2022-09-17T18:12:50.829Z,15.80
2022-09-17T18:15:28.683Z,15.70
2022-09-17T18:18:00.675Z,15.70
2022-09-17T18:20:27.823Z,15.70
2022-09-17T18:22:57.570Z,15.60
2022-09-17T18:25:28.956Z,15.60
2022-09-17T18:28:02.337Z,15.50
2022-09-17T18:30:43.865Z,15.50
2022-09-17T18:33:20.356Z,15.50
2022-09-17T18:35:48.160Z,15.40
2022-09-17T18:38:18.628Z,15.40
2022-09-17T18:40:48.691Z,15.30
2022-09-17T18:43:20.631Z,15.30
2022-09-17T18:46:08.159Z,15.20
2022-09-17T18:48:58.269Z,15.20
2022-09-17T18:51:28.811Z,15.10
2022-09-17T18:53:59.384Z,15.00
2022-09-17T18:56:29.811Z,15.00
2022-09-17T18:59:07.985Z,14.90
2022-09-17T19:01:35.806Z,14.80
2022-09-17T19:04:21.322Z,14.70
2022-09-17T19:06:58.802Z,14.70
2022-09-17T19:09:34.217Z,14.60
2022-09-17T19:12:07.282Z,14.50
2022-09-17T19:14:37.418Z,14.40
2022-09-17T19:17:13.126Z,14.30
2022-09-17T19:19:49.032Z,14.20
2022-09-17T19:22:17.318Z,14.20
2022-09-17T19:24:48.465Z,14.10
2022-09-17T19:27:19.674Z,14.00
2022-09-17T19:29:48.847Z,14.00
2022-09-17T19:32:20.994Z,13.90
2022-09-17T19:35:04.689Z,13.80
2022-09-17T19:37:34.634Z,13.80
2022-09-17T19:40:05.064Z,13.70
2022-09-17T19:42:34.153Z,13.70
2022-09-17T19:45:05.316Z,13.60
2022-09-17T19:47:35.495Z,13.60
2022-09-17T19:50:12.350Z,13.50
2022-09-17T19:52:45.798Z,13.40
2022-09-17T19:58:31.818Z,13.30
2022-09-17T20:01:01.447Z,13.30
2022-09-17T20:23:02.763Z,12.90
2022-09-17T20:26:49.456Z,12.90
2022-09-17T20:29:38.319Z,12.80
2022-09-17T20:35:00.961Z,12.70
2022-09-17T20:41:10.966Z,12.70
2022-09-17T20:43:46.068Z,12.60
2022-09-17T20:46:22.705Z,12.50
2022-09-17T20:49:03.915Z,12.50
2022-09-17T20:51:39.116Z,12.50
2022-09-17T20:54:13.908Z,12.50
2022-09-17T20:56:58.475Z,12.50
2022-09-17T20:59:46.513Z,12.40
2022-09-17T21:02:15.914Z,12.40
2022-09-17T21:04:49.855Z,12.30
2022-09-17T21:07:23.173Z,12.30
2022-09-17T21:10:05.594Z,12.30
2022-09-17T21:15:15.382Z,12.20
2022-09-17T21:22:08.465Z,12.20
2022-09-17T21:24:38.938Z,12.10
2022-09-17T21:28:14.381Z,12.10
2022-09-17T21:31:12.067Z,12.00
2022-09-17T21:37:36.352Z,12.00
2022-09-17T21:44:39.584Z,11.90
2022-09-17T21:46:20.451Z,11.90
2022-09-17T21:49:51.707Z,11.90
2022-09-17T22:00:25.843Z,11.80
2022-09-17T22:04:05.016Z,11.80
2022-09-17T22:06:48.448Z,11.70
2022-09-17T22:09:59.173Z,11.70
2022-09-17T22:16:36.237Z,11.60
2022-09-17T22:42:29.834Z,11.70
2022-09-17T22:46:59.737Z,11.80
2022-09-17T22:59:24.168Z,12.10
2022-09-17T23:01:41.361Z,12.20
2022-09-17T23:05:14.894Z,12.20
2022-09-17T23:07:52.914Z,12.20
2022-09-17T23:14:03.195Z,12.20
2022-09-17T23:20:46.307Z,12.30
2022-09-17T23:28:45.674Z,12.30
2022-09-17T23:31:35.246Z,12.30
2022-09-17T23:34:53.806Z,12.30
2022-09-17T23:37:37.264Z,12.40
2022-09-17T23:43:33.769Z,12.40
